sensor_id;sensor_type;location;lat;lon;timestamp;P1;durP1;ratioP1;P2;durP2;ratioP2
6614;SDS011;3343;42.896;23.912;2023-04-24T00:01:01;9.17;;;4.50;;
6614;SDS011;3343;42.896;23.912;2023-04-24T00:03:28;7.90;;;4.70;;
6614;SDS011;3343;42.896;23.912;2023-04-24T00:05:55;6.87;;;3.93;;
6614;SDS011;3343;42.896;23.912;2023-04-24T00:08:24;8.03;;;5.00;;
6614;SDS011;3343;42.896;23.912;2023-04-24T00:10:50;5.63;;;3.73;;
6614;SDS011;3343;42.896;23.912;2023-04-24T00:13:18;12.87;;;4.20;;
6614;SDS011;3343;42.896;23.912;2023-04-24T00:15:45;8.30;;;4.17;;
6614;SDS011;3343;42.896;23.912;2023-04-24T00:18:13;5.00;;;3.63;;
6614;SDS011;3343;42.896;23.912;2023-04-24T00:20:40;4.83;;;3.73;;
6614;SDS011;3343;42.896;23.912;2023-04-24T00:23:08;6.47;;;3.73;;
6614;SDS011;3343;42.896;23.912;2023-04-24T00:25:35;5.37;;;4.17;;
6614;SDS011;3343;42.896;23.912;2023-04-24T00:28:02;7.73;;;4.20;;
6614;SDS011;3343;42.896;23.912;2023-04-24T00:30:29;8.80;;;4.40;;
6614;SDS011;3343;42.896;23.912;2023-04-24T00:32:55;7.47;;;4.50;;
6614;SDS011;3343;42.896;23.912;2023-04-24T00:35:23;8.57;;;4.70;;
6614;SDS011;3343;42.896;23.912;2023-04-24T00:37:50;7.00;;;3.67;;
6614;SDS011;3343;42.896;23.912;2023-04-24T00:40:17;4.87;;;3.67;;
6614;SDS011;3343;42.896;23.912;2023-04-24T00:42:43;7.67;;;3.87;;
6614;SDS011;3343;42.896;23.912;2023-04-24T00:45:10;5.77;;;4.03;;
6614;SDS011;3343;42.896;23.912;2023-04-24T00:47:38;5.63;;;3.90;;
6614;SDS011;3343;42.896;23.912;2023-04-24T00:50:05;6.13;;;3.77;;
6614;SDS011;3343;42.896;23.912;2023-04-24T00:52:34;5.50;;;4.10;;
6614;SDS011;3343;42.896;23.912;2023-04-24T00:55:02;5.43;;;3.53;;
6614;SDS011;3343;42.896;23.912;2023-04-24T00:57:29;4.60;;;3.50;;
6614;SDS011;3343;42.896;23.912;2023-04-24T00:59:56;4.07;;;3.53;;
6614;SDS011;3343;42.896;23.912;2023-04-24T01:02:23;4.67;;;2.87;;
6614;SDS011;3343;42.896;23.912;2023-04-24T01:04:51;3.57;;;3.23;;
6614;SDS011;3343;42.896;23.912;2023-04-24T01:07:19;5.03;;;3.57;;
6614;SDS011;3343;42.896;23.912;2023-04-24T01:09:48;5.00;;;3.70;;
6614;SDS011;3343;42.896;23.912;2023-04-24T01:12:16;7.40;;;4.00;;
6614;SDS011;3343;42.896;23.912;2023-04-24T01:14:43;7.47;;;3.87;;
6614;SDS011;3343;42.896;23.912;2023-04-24T01:17:11;5.10;;;3.40;;
6614;SDS011;3343;42.896;23.912;2023-04-24T01:19:37;4.30;;;3.47;;
6614;SDS011;3343;42.896;23.912;2023-04-24T01:22:09;5.20;;;3.67;;
6614;SDS011;3343;42.896;23.912;2023-04-24T01:24:37;3.97;;;3.40;;
6614;SDS011;3343;42.896;23.912;2023-04-24T01:27:04;6.23;;;3.60;;
6614;SDS011;3343;42.896;23.912;2023-04-24T01:29:31;4.80;;;3.50;;
6614;SDS011;3343;42.896;23.912;2023-04-24T01:31:58;4.33;;;3.20;;
6614;SDS011;3343;42.896;23.912;2023-04-24T01:34:25;4.33;;;3.60;;
6614;SDS011;3343;42.896;23.912;2023-04-24T01:36:52;4.87;;;3.47;;
6614;SDS011;3343;42.896;23.912;2023-04-24T01:39:20;4.33;;;3.40;;
6614;SDS011;3343;42.896;23.912;2023-04-24T01:41:48;4.60;;;3.47;;
6614;SDS011;3343;42.896;23.912;2023-04-24T01:44:15;4.70;;;3.67;;
6614;SDS011;3343;42.896;23.912;2023-04-24T01:46:43;4.13;;;2.90;;
6614;SDS011;3343;42.896;23.912;2023-04-24T01:49:10;7.03;;;3.83;;
6614;SDS011;3343;42.896;23.912;2023-04-24T01:51:37;4.17;;;3.17;;
6614;SDS011;3343;42.896;23.912;2023-04-24T01:54:04;6.97;;;3.30;;
6614;SDS011;3343;42.896;23.912;2023-04-24T01:56:33;7.00;;;3.70;;
6614;SDS011;3343;42.896;23.912;2023-04-24T01:59:01;3.77;;;3.20;;
6614;SDS011;3343;42.896;23.912;2023-04-24T02:01:32;4.57;;;3.33;;
6614;SDS011;3343;42.896;23.912;2023-04-24T02:04:01;5.77;;;3.17;;
6614;SDS011;3343;42.896;23.912;2023-04-24T02:06:27;4.60;;;3.20;;
6614;SDS011;3343;42.896;23.912;2023-04-24T02:08:54;4.10;;;2.67;;
6614;SDS011;3343;42.896;23.912;2023-04-24T02:11:21;6.70;;;4.07;;
6614;SDS011;3343;42.896;23.912;2023-04-24T02:13:49;4.30;;;3.00;;
6614;SDS011;3343;42.896;23.912;2023-04-24T02:16:16;4.57;;;3.10;;
6614;SDS011;3343;42.896;23.912;2023-04-24T02:18:43;4.20;;;3.20;;
6614;SDS011;3343;42.896;23.912;2023-04-24T02:21:10;5.13;;;2.90;;
6614;SDS011;3343;42.896;23.912;2023-04-24T02:23:36;8.97;;;3.70;;
6614;SDS011;3343;42.896;23.912;2023-04-24T02:26:03;4.93;;;3.20;;
6614;SDS011;3343;42.896;23.912;2023-04-24T02:28:30;3.93;;;3.13;;
6614;SDS011;3343;42.896;23.912;2023-04-24T02:30:58;6.80;;;3.97;;
6614;SDS011;3343;42.896;23.912;2023-04-24T02:33:25;6.60;;;4.37;;
6614;SDS011;3343;42.896;23.912;2023-04-24T02:35:52;5.40;;;3.67;;
6614;SDS011;3343;42.896;23.912;2023-04-24T02:38:18;5.27;;;3.77;;
6614;SDS011;3343;42.896;23.912;2023-04-24T02:40:45;5.27;;;3.87;;
6614;SDS011;3343;42.896;23.912;2023-04-24T02:43:12;5.73;;;4.17;;
6614;SDS011;3343;42.896;23.912;2023-04-24T02:45:38;5.37;;;3.50;;
6614;SDS011;3343;42.896;23.912;2023-04-24T02:48:07;5.17;;;3.97;;
6614;SDS011;3343;42.896;23.912;2023-04-24T02:50:33;5.37;;;3.70;;
6614;SDS011;3343;42.896;23.912;2023-04-24T02:53:00;6.80;;;3.73;;
6614;SDS011;3343;42.896;23.912;2023-04-24T02:55:27;4.40;;;3.60;;
6614;SDS011;3343;42.896;23.912;2023-04-24T02:57:53;6.87;;;3.57;;
6614;SDS011;3343;42.896;23.912;2023-04-24T03:00:20;8.40;;;3.80;;
6614;SDS011;3343;42.896;23.912;2023-04-24T03:02:47;4.40;;;3.00;;
6614;SDS011;3343;42.896;23.912;2023-04-24T03:05:15;8.20;;;4.00;;
6614;SDS011;3343;42.896;23.912;2023-04-24T03:07:42;4.70;;;3.33;;
6614;SDS011;3343;42.896;23.912;2023-04-24T03:10:10;3.93;;;3.53;;
6614;SDS011;3343;42.896;23.912;2023-04-24T03:12:37;3.67;;;3.30;;
6614;SDS011;3343;42.896;23.912;2023-04-24T03:15:04;8.73;;;3.53;;
6614;SDS011;3343;42.896;23.912;2023-04-24T03:17:31;6.10;;;3.60;;
6614;SDS011;3343;42.896;23.912;2023-04-24T03:19:58;4.20;;;3.70;;
6614;SDS011;3343;42.896;23.912;2023-04-24T03:22:26;4.70;;;3.07;;
6614;SDS011;3343;42.896;23.912;2023-04-24T03:24:53;3.60;;;2.73;;
6614;SDS011;3343;42.896;23.912;2023-04-24T03:27:20;5.00;;;3.80;;
6614;SDS011;3343;42.896;23.912;2023-04-24T03:29:46;5.20;;;3.90;;
6614;SDS011;3343;42.896;23.912;2023-04-24T03:32:13;4.30;;;3.03;;
6614;SDS011;3343;42.896;23.912;2023-04-24T03:34:40;5.67;;;3.80;;
6614;SDS011;3343;42.896;23.912;2023-04-24T03:37:06;6.20;;;3.90;;
6614;SDS011;3343;42.896;23.912;2023-04-24T03:39:34;6.20;;;5.23;;
6614;SDS011;3343;42.896;23.912;2023-04-24T03:42:01;7.67;;;5.23;;
6614;SDS011;3343;42.896;23.912;2023-04-24T03:44:28;4.83;;;3.87;;
6614;SDS011;3343;42.896;23.912;2023-04-24T03:46:54;5.70;;;3.53;;
6614;SDS011;3343;42.896;23.912;2023-04-24T03:49:21;3.50;;;2.73;;
6614;SDS011;3343;42.896;23.912;2023-04-24T03:51:48;4.03;;;3.37;;
6614;SDS011;3343;42.896;23.912;2023-04-24T03:54:15;5.20;;;3.67;;
6614;SDS011;3343;42.896;23.912;2023-04-24T03:56:44;4.10;;;3.40;;
6614;SDS011;3343;42.896;23.912;2023-04-24T03:59:10;6.33;;;4.40;;
6614;SDS011;3343;42.896;23.912;2023-04-24T04:01:38;6.87;;;4.27;;
6614;SDS011;3343;42.896;23.912;2023-04-24T04:04:05;6.00;;;4.27;;
6614;SDS011;3343;42.896;23.912;2023-04-24T04:06:32;6.73;;;4.17;;
6614;SDS011;3343;42.896;23.912;2023-04-24T04:08:59;6.13;;;4.27;;
6614;SDS011;3343;42.896;23.912;2023-04-24T04:11:26;6.37;;;4.20;;
6614;SDS011;3343;42.896;23.912;2023-04-24T04:13:54;5.47;;;3.70;;
6614;SDS011;3343;42.896;23.912;2023-04-24T04:16:21;5.73;;;4.10;;
6614;SDS011;3343;42.896;23.912;2023-04-24T04:18:48;6.10;;;4.17;;
6614;SDS011;3343;42.896;23.912;2023-04-24T04:21:15;7.00;;;4.57;;
6614;SDS011;3343;42.896;23.912;2023-04-24T04:23:42;7.73;;;4.07;;
6614;SDS011;3343;42.896;23.912;2023-04-24T04:26:08;5.53;;;4.13;;
6614;SDS011;3343;42.896;23.912;2023-04-24T04:28:35;7.73;;;5.50;;
6614;SDS011;3343;42.896;23.912;2023-04-24T04:31:04;10.10;;;5.73;;
6614;SDS011;3343;42.896;23.912;2023-04-24T04:33:32;9.87;;;5.27;;
6614;SDS011;3343;42.896;23.912;2023-04-24T04:36:01;11.37;;;5.30;;
6614;SDS011;3343;42.896;23.912;2023-04-24T04:38:28;10.43;;;6.60;;
6614;SDS011;3343;42.896;23.912;2023-04-24T04:40:56;8.37;;;7.07;;
6614;SDS011;3343;42.896;23.912;2023-04-24T04:43:23;8.37;;;5.63;;
6614;SDS011;3343;42.896;23.912;2023-04-24T04:45:50;7.50;;;5.13;;
6614;SDS011;3343;42.896;23.912;2023-04-24T04:48:18;6.83;;;5.07;;
6614;SDS011;3343;42.896;23.912;2023-04-24T04:50:45;6.43;;;4.70;;
6614;SDS011;3343;42.896;23.912;2023-04-24T04:53:12;8.07;;;5.33;;
6614;SDS011;3343;42.896;23.912;2023-04-24T04:55:39;9.27;;;6.37;;
6614;SDS011;3343;42.896;23.912;2023-04-24T04:58:06;12.57;;;7.40;;
6614;SDS011;3343;42.896;23.912;2023-04-24T05:00:33;13.67;;;7.17;;
6614;SDS011;3343;42.896;23.912;2023-04-24T05:03:00;11.07;;;7.23;;
6614;SDS011;3343;42.896;23.912;2023-04-24T05:05:29;9.60;;;6.33;;
6614;SDS011;3343;42.896;23.912;2023-04-24T05:07:55;10.50;;;6.97;;
6614;SDS011;3343;42.896;23.912;2023-04-24T05:10:22;9.23;;;5.93;;
6614;SDS011;3343;42.896;23.912;2023-04-24T05:12:49;9.00;;;6.47;;
6614;SDS011;3343;42.896;23.912;2023-04-24T05:15:16;13.50;;;6.87;;
6614;SDS011;3343;42.896;23.912;2023-04-24T05:17:42;9.33;;;6.63;;
6614;SDS011;3343;42.896;23.912;2023-04-24T05:20:09;10.93;;;6.40;;
6614;SDS011;3343;42.896;23.912;2023-04-24T05:22:37;8.43;;;6.23;;
6614;SDS011;3343;42.896;23.912;2023-04-24T05:25:04;10.33;;;7.37;;
6614;SDS011;3343;42.896;23.912;2023-04-24T05:27:31;8.80;;;6.13;;
6614;SDS011;3343;42.896;23.912;2023-04-24T05:29:58;7.80;;;5.83;;
6614;SDS011;3343;42.896;23.912;2023-04-24T05:32:25;6.40;;;4.53;;
6614;SDS011;3343;42.896;23.912;2023-04-24T05:34:52;5.33;;;3.63;;
6614;SDS011;3343;42.896;23.912;2023-04-24T05:37:18;7.33;;;5.00;;
6614;SDS011;3343;42.896;23.912;2023-04-24T05:39:46;8.13;;;3.97;;
6614;SDS011;3343;42.896;23.912;2023-04-24T05:42:13;6.70;;;3.97;;
6614;SDS011;3343;42.896;23.912;2023-04-24T05:44:40;4.97;;;4.17;;
6614;SDS011;3343;42.896;23.912;2023-04-24T05:47:07;5.53;;;3.80;;
6614;SDS011;3343;42.896;23.912;2023-04-24T05:49:33;7.07;;;4.80;;
6614;SDS011;3343;42.896;23.912;2023-04-24T05:52:00;9.47;;;4.77;;
6614;SDS011;3343;42.896;23.912;2023-04-24T05:54:29;8.80;;;4.83;;
6614;SDS011;3343;42.896;23.912;2023-04-24T05:56:57;9.27;;;5.20;;
6614;SDS011;3343;42.896;23.912;2023-04-24T05:59:23;8.10;;;4.53;;
6614;SDS011;3343;42.896;23.912;2023-04-24T06:01:50;6.23;;;4.60;;
6614;SDS011;3343;42.896;23.912;2023-04-24T06:04:17;14.13;;;5.27;;
6614;SDS011;3343;42.896;23.912;2023-04-24T06:06:44;5.73;;;4.40;;
6614;SDS011;3343;42.896;23.912;2023-04-24T06:09:11;6.10;;;4.53;;
6614;SDS011;3343;42.896;23.912;2023-04-24T06:11:38;7.83;;;5.60;;
6614;SDS011;3343;42.896;23.912;2023-04-24T06:14:06;15.23;;;7.07;;
6614;SDS011;3343;42.896;23.912;2023-04-24T06:16:32;9.87;;;6.00;;
6614;SDS011;3343;42.896;23.912;2023-04-24T06:18:59;7.23;;;4.80;;
6614;SDS011;3343;42.896;23.912;2023-04-24T06:21:26;5.30;;;3.53;;
6614;SDS011;3343;42.896;23.912;2023-04-24T06:23:53;3.23;;;2.90;;
6614;SDS011;3343;42.896;23.912;2023-04-24T06:26:21;2.93;;;2.63;;
6614;SDS011;3343;42.896;23.912;2023-04-24T06:28:50;5.77;;;2.73;;
6614;SDS011;3343;42.896;23.912;2023-04-24T06:31:18;6.40;;;2.67;;
6614;SDS011;3343;42.896;23.912;2023-04-24T06:33:44;3.20;;;2.57;;
6614;SDS011;3343;42.896;23.912;2023-04-24T06:36:11;5.87;;;2.83;;
6614;SDS011;3343;42.896;23.912;2023-04-24T06:38:38;2.77;;;2.43;;
6614;SDS011;3343;42.896;23.912;2023-04-24T06:41:05;5.27;;;2.80;;
6614;SDS011;3343;42.896;23.912;2023-04-24T06:43:31;4.23;;;2.57;;
6614;SDS011;3343;42.896;23.912;2023-04-24T06:45:58;3.47;;;2.70;;
6614;SDS011;3343;42.896;23.912;2023-04-24T06:48:26;4.43;;;3.00;;
6614;SDS011;3343;42.896;23.912;2023-04-24T06:50:53;2.57;;;2.37;;
6614;SDS011;3343;42.896;23.912;2023-04-24T06:53:20;3.33;;;2.90;;
6614;SDS011;3343;42.896;23.912;2023-04-24T06:55:47;3.93;;;3.07;;
6614;SDS011;3343;42.896;23.912;2023-04-24T06:58:13;2.93;;;2.63;;
6614;SDS011;3343;42.896;23.912;2023-04-24T07:00:41;5.10;;;2.90;;
6614;SDS011;3343;42.896;23.912;2023-04-24T07:03:07;3.57;;;2.93;;
6614;SDS011;3343;42.896;23.912;2023-04-24T07:05:36;4.27;;;2.67;;
6614;SDS011;3343;42.896;23.912;2023-04-24T07:08:03;5.00;;;3.00;;
6614;SDS011;3343;42.896;23.912;2023-04-24T07:10:31;4.60;;;2.67;;
6614;SDS011;3343;42.896;23.912;2023-04-24T07:12:59;3.27;;;2.50;;
6614;SDS011;3343;42.896;23.912;2023-04-24T07:15:26;3.63;;;2.83;;
6614;SDS011;3343;42.896;23.912;2023-04-24T07:17:53;4.23;;;2.80;;
6614;SDS011;3343;42.896;23.912;2023-04-24T07:20:20;3.97;;;2.73;;
6614;SDS011;3343;42.896;23.912;2023-04-24T07:22:48;3.50;;;2.83;;
6614;SDS011;3343;42.896;23.912;2023-04-24T07:25:14;7.40;;;3.60;;
6614;SDS011;3343;42.896;23.912;2023-04-24T07:27:41;5.43;;;3.70;;
6614;SDS011;3343;42.896;23.912;2023-04-24T07:30:08;5.67;;;3.23;;
6614;SDS011;3343;42.896;23.912;2023-04-24T07:32:35;5.03;;;3.43;;
6614;SDS011;3343;42.896;23.912;2023-04-24T07:35:02;5.20;;;3.10;;
6614;SDS011;3343;42.896;23.912;2023-04-24T07:37:29;5.20;;;2.53;;
6614;SDS011;3343;42.896;23.912;2023-04-24T07:39:57;3.17;;;2.67;;
6614;SDS011;3343;42.896;23.912;2023-04-24T07:42:24;6.90;;;3.03;;
6614;SDS011;3343;42.896;23.912;2023-04-24T07:44:51;3.57;;;3.00;;
6614;SDS011;3343;42.896;23.912;2023-04-24T07:47:17;3.57;;;2.80;;
6614;SDS011;3343;42.896;23.912;2023-04-24T07:49:44;3.20;;;2.40;;
6614;SDS011;3343;42.896;23.912;2023-04-24T07:52:11;3.63;;;2.90;;
6614;SDS011;3343;42.896;23.912;2023-04-24T07:54:37;9.17;;;3.50;;
6614;SDS011;3343;42.896;23.912;2023-04-24T07:57:06;6.30;;;3.73;;
6614;SDS011;3343;42.896;23.912;2023-04-24T07:59:33;6.97;;;4.20;;
6614;SDS011;3343;42.896;23.912;2023-04-24T08:02:00;6.53;;;3.60;;
6614;SDS011;3343;42.896;23.912;2023-04-24T08:04:27;8.33;;;3.93;;
6614;SDS011;3343;42.896;23.912;2023-04-24T08:06:54;6.97;;;3.70;;
6614;SDS011;3343;42.896;23.912;2023-04-24T08:09:20;6.23;;;3.50;;
6614;SDS011;3343;42.896;23.912;2023-04-24T08:11:47;4.10;;;3.25;;
6614;SDS011;3343;42.896;23.912;2023-04-24T08:14:15;4.47;;;3.40;;
6614;SDS011;3343;42.896;23.912;2023-04-24T08:16:42;2.95;;;2.50;;
6614;SDS011;3343;42.896;23.912;2023-04-24T08:19:08;5.57;;;3.50;;
6614;SDS011;3343;42.896;23.912;2023-04-24T08:21:35;3.57;;;2.87;;
6614;SDS011;3343;42.896;23.912;2023-04-24T08:24:02;5.57;;;3.40;;
6614;SDS011;3343;42.896;23.912;2023-04-24T08:26:32;4.23;;;2.90;;
6614;SDS011;3343;42.896;23.912;2023-04-24T08:28:59;3.97;;;3.00;;
6614;SDS011;3343;42.896;23.912;2023-04-24T08:31:27;5.33;;;3.23;;
6614;SDS011;3343;42.896;23.912;2023-04-24T08:33:54;4.50;;;3.03;;
6614;SDS011;3343;42.896;23.912;2023-04-24T08:36:21;3.13;;;2.20;;
6614;SDS011;3343;42.896;23.912;2023-04-24T08:38:48;7.40;;;3.40;;
6614;SDS011;3343;42.896;23.912;2023-04-24T08:41:15;3.20;;;2.90;;
6614;SDS011;3343;42.896;23.912;2023-04-24T08:43:44;3.70;;;2.87;;
6614;SDS011;3343;42.896;23.912;2023-04-24T08:46:13;4.57;;;3.00;;
6614;SDS011;3343;42.896;23.912;2023-04-24T08:48:42;3.70;;;3.27;;
6614;SDS011;3343;42.896;23.912;2023-04-24T08:51:09;4.90;;;3.43;;
6614;SDS011;3343;42.896;23.912;2023-04-24T08:53:36;3.37;;;2.93;;
6614;SDS011;3343;42.896;23.912;2023-04-24T08:56:02;5.27;;;3.73;;
6614;SDS011;3343;42.896;23.912;2023-04-24T08:58:31;9.23;;;3.90;;
6614;SDS011;3343;42.896;23.912;2023-04-24T09:00:58;6.03;;;3.57;;
6614;SDS011;3343;42.896;23.912;2023-04-24T09:03:26;3.78;;;2.92;;
6614;SDS011;3343;42.896;23.912;2023-04-24T09:05:55;6.57;;;3.97;;
6614;SDS011;3343;42.896;23.912;2023-04-24T09:08:24;3.05;;;2.83;;
6614;SDS011;3343;42.896;23.912;2023-04-24T09:10:52;4.63;;;2.90;;
6614;SDS011;3343;42.896;23.912;2023-04-24T09:13:18;6.95;;;3.40;;
6614;SDS011;3343;42.896;23.912;2023-04-24T09:15:45;5.28;;;3.30;;
6614;SDS011;3343;42.896;23.912;2023-04-24T09:18:12;8.25;;;3.15;;
6614;SDS011;3343;42.896;23.912;2023-04-24T09:23:25;4.50;;;2.63;;
6614;SDS011;3343;42.896;23.912;2023-04-24T09:25:54;4.18;;;3.40;;
6614;SDS011;3343;42.896;23.912;2023-04-24T09:28:25;4.57;;;3.28;;
6614;SDS011;3343;42.896;23.912;2023-04-24T09:31:01;3.00;;;2.55;;
6614;SDS011;3343;42.896;23.912;2023-04-24T09:33:32;7.35;;;2.88;;
6614;SDS011;3343;42.896;23.912;2023-04-24T09:36:01;3.30;;;2.45;;
6614;SDS011;3343;42.896;23.912;2023-04-24T09:38:31;3.30;;;2.67;;
6614;SDS011;3343;42.896;23.912;2023-04-24T09:40:59;4.18;;;3.08;;
6614;SDS011;3343;42.896;23.912;2023-04-24T09:43:28;3.58;;;2.83;;
6614;SDS011;3343;42.896;23.912;2023-04-24T09:45:55;3.20;;;2.50;;
6614;SDS011;3343;42.896;23.912;2023-04-24T09:48:32;6.38;;;2.75;;
6614;SDS011;3343;42.896;23.912;2023-04-24T09:51:02;3.40;;;2.55;;
6614;SDS011;3343;42.896;23.912;2023-04-24T09:53:31;2.72;;;2.35;;
6614;SDS011;3343;42.896;23.912;2023-04-24T09:56:01;3.65;;;2.40;;
6614;SDS011;3343;42.896;23.912;2023-04-24T09:58:29;3.28;;;2.70;;
6614;SDS011;3343;42.896;23.912;2023-04-24T10:00:56;3.03;;;2.70;;
6614;SDS011;3343;42.896;23.912;2023-04-24T10:03:23;3.00;;;2.65;;
6614;SDS011;3343;42.896;23.912;2023-04-24T10:05:54;3.05;;;2.47;;
6614;SDS011;3343;42.896;23.912;2023-04-24T10:08:26;2.95;;;2.50;;
6614;SDS011;3343;42.896;23.912;2023-04-24T10:10:59;2.65;;;2.33;;
6614;SDS011;3343;42.896;23.912;2023-04-24T10:13:26;2.95;;;2.45;;
6614;SDS011;3343;42.896;23.912;2023-04-24T10:15:54;3.13;;;2.40;;
6614;SDS011;3343;42.896;23.912;2023-04-24T10:18:22;3.60;;;2.70;;
6614;SDS011;3343;42.896;23.912;2023-04-24T10:20:50;3.30;;;2.53;;
6614;SDS011;3343;42.896;23.912;2023-04-24T10:23:19;2.65;;;2.40;;
6614;SDS011;3343;42.896;23.912;2023-04-24T10:25:48;6.65;;;3.55;;
6614;SDS011;3343;42.896;23.912;2023-04-24T10:28:15;2.60;;;2.40;;
6614;SDS011;3343;42.896;23.912;2023-04-24T10:30:45;5.53;;;2.78;;
6614;SDS011;3343;42.896;23.912;2023-04-24T10:33:11;3.60;;;2.47;;
6614;SDS011;3343;42.896;23.912;2023-04-24T10:35:40;2.67;;;2.47;;
6614;SDS011;3343;42.896;23.912;2023-04-24T10:38:11;3.72;;;2.50;;
6614;SDS011;3343;42.896;23.912;2023-04-24T10:40:39;2.20;;;1.95;;
6614;SDS011;3343;42.896;23.912;2023-04-24T10:43:08;3.80;;;2.65;;
6614;SDS011;3343;42.896;23.912;2023-04-24T10:45:36;3.25;;;2.75;;
6614;SDS011;3343;42.896;23.912;2023-04-24T10:48:04;6.00;;;2.95;;
6614;SDS011;3343;42.896;23.912;2023-04-24T10:50:42;2.40;;;1.98;;
6614;SDS011;3343;42.896;23.912;2023-04-24T10:53:13;4.82;;;2.60;;
6614;SDS011;3343;42.896;23.912;2023-04-24T10:55:45;2.63;;;2.40;;
6614;SDS011;3343;42.896;23.912;2023-04-24T10:58:15;2.63;;;2.35;;
6614;SDS011;3343;42.896;23.912;2023-04-24T11:00:43;2.95;;;2.45;;
6614;SDS011;3343;42.896;23.912;2023-04-24T11:03:23;2.30;;;2.10;;
6614;SDS011;3343;42.896;23.912;2023-04-24T11:05:53;4.18;;;2.58;;
6614;SDS011;3343;42.896;23.912;2023-04-24T11:08:23;2.75;;;2.47;;
6614;SDS011;3343;42.896;23.912;2023-04-24T11:10:56;3.20;;;2.60;;
6614;SDS011;3343;42.896;23.912;2023-04-24T11:13:26;3.83;;;2.67;;
6614;SDS011;3343;42.896;23.912;2023-04-24T11:16:12;3.65;;;2.47;;
6614;SDS011;3343;42.896;23.912;2023-04-24T11:18:41;3.88;;;2.95;;
6614;SDS011;3343;42.896;23.912;2023-04-24T11:21:11;4.93;;;2.70;;
6614;SDS011;3343;42.896;23.912;2023-04-24T11:23:39;2.72;;;2.28;;
6614;SDS011;3343;42.896;23.912;2023-04-24T11:26:17;8.27;;;2.50;;
6614;SDS011;3343;42.896;23.912;2023-04-24T11:28:47;3.78;;;2.80;;
6614;SDS011;3343;42.896;23.912;2023-04-24T11:34:06;2.92;;;2.45;;
6614;SDS011;3343;42.896;23.912;2023-04-24T11:36:34;3.00;;;2.65;;
6614;SDS011;3343;42.896;23.912;2023-04-24T11:39:01;3.78;;;2.38;;
6614;SDS011;3343;42.896;23.912;2023-04-24T11:41:28;5.65;;;2.80;;
6614;SDS011;3343;42.896;23.912;2023-04-24T11:43:57;5.90;;;2.95;;
6614;SDS011;3343;42.896;23.912;2023-04-24T11:46:26;5.15;;;2.92;;
6614;SDS011;3343;42.896;23.912;2023-04-24T11:48:55;5.60;;;3.03;;
6614;SDS011;3343;42.896;23.912;2023-04-24T11:51:22;4.35;;;2.58;;
6614;SDS011;3343;42.896;23.912;2023-04-24T11:53:51;3.30;;;2.42;;
6614;SDS011;3343;42.896;23.912;2023-04-24T11:56:19;2.50;;;2.30;;
6614;SDS011;3343;42.896;23.912;2023-04-24T11:58:45;2.40;;;2.20;;
6614;SDS011;3343;42.896;23.912;2023-04-24T12:01:14;2.97;;;2.67;;
6614;SDS011;3343;42.896;23.912;2023-04-24T12:03:41;3.00;;;2.70;;
6614;SDS011;3343;42.896;23.912;2023-04-24T12:06:13;3.47;;;2.80;;
6614;SDS011;3343;42.896;23.912;2023-04-24T12:08:40;2.88;;;2.50;;
6614;SDS011;3343;42.896;23.912;2023-04-24T12:11:06;3.65;;;2.80;;
6614;SDS011;3343;42.896;23.912;2023-04-24T12:13:34;2.55;;;2.35;;
6614;SDS011;3343;42.896;23.912;2023-04-24T12:16:01;2.72;;;2.38;;
6614;SDS011;3343;42.896;23.912;2023-04-24T12:18:31;4.70;;;3.13;;
6614;SDS011;3343;42.896;23.912;2023-04-24T12:21:17;4.95;;;2.55;;
6614;SDS011;3343;42.896;23.912;2023-04-24T12:23:45;2.63;;;2.40;;
6614;SDS011;3343;42.896;23.912;2023-04-24T12:26:12;3.08;;;2.53;;
6614;SDS011;3343;42.896;23.912;2023-04-24T12:28:42;3.05;;;2.72;;
6614;SDS011;3343;42.896;23.912;2023-04-24T12:31:12;3.03;;;2.45;;
6614;SDS011;3343;42.896;23.912;2023-04-24T12:33:40;3.47;;;2.70;;
6614;SDS011;3343;42.896;23.912;2023-04-24T12:36:09;5.45;;;3.45;;
6614;SDS011;3343;42.896;23.912;2023-04-24T12:38:37;3.83;;;2.85;;
6614;SDS011;3343;42.896;23.912;2023-04-24T12:41:06;2.95;;;2.40;;
6614;SDS011;3343;42.896;23.912;2023-04-24T12:43:34;3.05;;;2.50;;
6614;SDS011;3343;42.896;23.912;2023-04-24T12:46:01;4.57;;;2.88;;
6614;SDS011;3343;42.896;23.912;2023-04-24T12:48:28;5.10;;;3.10;;
6614;SDS011;3343;42.896;23.912;2023-04-24T12:50:57;4.45;;;3.28;;
6614;SDS011;3343;42.896;23.912;2023-04-24T12:53:26;8.10;;;3.63;;
6614;SDS011;3343;42.896;23.912;2023-04-24T12:55:54;5.00;;;3.50;;
6614;SDS011;3343;42.896;23.912;2023-04-24T12:58:21;3.93;;;2.93;;
6614;SDS011;3343;42.896;23.912;2023-04-24T13:00:48;4.23;;;3.50;;
6614;SDS011;3343;42.896;23.912;2023-04-24T13:03:15;4.90;;;3.10;;
6614;SDS011;3343;42.896;23.912;2023-04-24T13:05:42;4.53;;;3.00;;
6614;SDS011;3343;42.896;23.912;2023-04-24T13:08:10;5.37;;;3.33;;
6614;SDS011;3343;42.896;23.912;2023-04-24T13:10:38;4.13;;;3.40;;
6614;SDS011;3343;42.896;23.912;2023-04-24T13:13:05;4.20;;;3.67;;
6614;SDS011;3343;42.896;23.912;2023-04-24T13:15:32;6.37;;;4.43;;
6614;SDS011;3343;42.896;23.912;2023-04-24T13:17:59;5.23;;;3.73;;
6614;SDS011;3343;42.896;23.912;2023-04-24T13:20:26;11.03;;;4.50;;
6614;SDS011;3343;42.896;23.912;2023-04-24T13:22:53;5.77;;;3.37;;
6614;SDS011;3343;42.896;23.912;2023-04-24T13:25:21;3.90;;;3.40;;
6614;SDS011;3343;42.896;23.912;2023-04-24T13:27:48;7.53;;;3.70;;
6614;SDS011;3343;42.896;23.912;2023-04-24T13:30:15;6.50;;;3.30;;
6614;SDS011;3343;42.896;23.912;2023-04-24T13:32:42;5.83;;;3.67;;
6614;SDS011;3343;42.896;23.912;2023-04-24T13:35:09;4.30;;;3.53;;
6614;SDS011;3343;42.896;23.912;2023-04-24T13:37:36;4.87;;;3.43;;
6614;SDS011;3343;42.896;23.912;2023-04-24T13:40:03;8.67;;;3.93;;
6614;SDS011;3343;42.896;23.912;2023-04-24T13:42:33;8.03;;;4.53;;
6614;SDS011;3343;42.896;23.912;2023-04-24T13:45:00;9.27;;;4.40;;
6614;SDS011;3343;42.896;23.912;2023-04-24T13:47:27;11.17;;;4.43;;
6614;SDS011;3343;42.896;23.912;2023-04-24T13:49:53;6.50;;;3.97;;
6614;SDS011;3343;42.896;23.912;2023-04-24T13:52:20;7.03;;;4.63;;
6614;SDS011;3343;42.896;23.912;2023-04-24T13:54:47;12.73;;;6.37;;
6614;SDS011;3343;42.896;23.912;2023-04-24T13:57:14;9.53;;;6.00;;
6614;SDS011;3343;42.896;23.912;2023-04-24T13:59:43;5.73;;;4.77;;
6614;SDS011;3343;42.896;23.912;2023-04-24T14:02:10;10.07;;;5.17;;
6614;SDS011;3343;42.896;23.912;2023-04-24T14:04:37;6.90;;;5.53;;
6614;SDS011;3343;42.896;23.912;2023-04-24T14:07:03;6.77;;;4.77;;
6614;SDS011;3343;42.896;23.912;2023-04-24T14:09:30;8.03;;;4.97;;
6614;SDS011;3343;42.896;23.912;2023-04-24T14:11:57;5.90;;;4.07;;
6614;SDS011;3343;42.896;23.912;2023-04-24T14:14:24;4.27;;;3.43;;
6614;SDS011;3343;42.896;23.912;2023-04-24T14:16:52;4.33;;;3.43;;
6614;SDS011;3343;42.896;23.912;2023-04-24T14:19:18;6.77;;;4.10;;
6614;SDS011;3343;42.896;23.912;2023-04-24T14:21:45;5.80;;;3.23;;
6614;SDS011;3343;42.896;23.912;2023-04-24T14:24:12;5.23;;;3.00;;
6614;SDS011;3343;42.896;23.912;2023-04-24T14:26:38;6.03;;;4.23;;
6614;SDS011;3343;42.896;23.912;2023-04-24T14:29:05;5.00;;;3.90;;
6614;SDS011;3343;42.896;23.912;2023-04-24T14:31:32;3.77;;;2.73;;
6614;SDS011;3343;42.896;23.912;2023-04-24T14:34:00;3.67;;;3.00;;
6614;SDS011;3343;42.896;23.912;2023-04-24T14:36:27;4.17;;;3.20;;
6614;SDS011;3343;42.896;23.912;2023-04-24T14:38:53;3.67;;;3.07;;
6614;SDS011;3343;42.896;23.912;2023-04-24T14:41:20;4.40;;;2.77;;
6614;SDS011;3343;42.896;23.912;2023-04-24T14:43:47;4.57;;;3.70;;
6614;SDS011;3343;42.896;23.912;2023-04-24T14:46:13;2.90;;;2.60;;
6614;SDS011;3343;42.896;23.912;2023-04-24T14:48:40;3.03;;;2.30;;
6614;SDS011;3343;42.896;23.912;2023-04-24T14:51:08;3.03;;;2.40;;
6614;SDS011;3343;42.896;23.912;2023-04-24T14:53:35;4.00;;;2.93;;
6614;SDS011;3343;42.896;23.912;2023-04-24T14:56:01;2.87;;;2.10;;
6614;SDS011;3343;42.896;23.912;2023-04-24T14:58:28;2.97;;;2.60;;
6614;SDS011;3343;42.896;23.912;2023-04-24T15:00:55;3.57;;;2.60;;
6614;SDS011;3343;42.896;23.912;2023-04-24T15:03:22;2.93;;;2.53;;
6614;SDS011;3343;42.896;23.912;2023-04-24T15:05:49;2.53;;;2.27;;
6614;SDS011;3343;42.896;23.912;2023-04-24T15:08:18;3.63;;;2.27;;